sensor_id;sensor_type;location;lat;lon;timestamp;P1;durP1;ratioP1;P2;durP2;ratioP2
71821;SDS011;64096;52.548;13.406;2023-11-19T06:02:22;5.90;;;3.60;;
71821;SDS011;64096;52.548;13.406;2023-11-19T06:04:48;5.60;;;3.88;;
71821;SDS011;64096;52.548;13.406;2023-11-19T06:07:14;5.03;;;3.72;;
71821;SDS011;64096;52.548;13.406;2023-11-19T06:09:40;5.10;;;3.60;;
71821;SDS011;64096;52.548;13.406;2023-11-19T06:12:07;4.90;;;3.60;;
71821;SDS011;64096;52.548;13.406;2023-11-19T06:14:33;4.47;;;3.33;;
71821;SDS011;64096;52.548;13.406;2023-11-19T06:16:59;5.72;;;4.07;;
71821;SDS011;64096;52.548;13.406;2023-11-19T06:19:25;5.57;;;3.50;;
71821;SDS011;64096;52.548;13.406;2023-11-19T06:21:51;6.63;;;4.00;;
71821;SDS011;64096;52.548;13.406;2023-11-19T06:24:17;5.65;;;3.85;;
71821;SDS011;64096;52.548;13.406;2023-11-19T06:26:44;5.32;;;3.63;;
71821;SDS011;64096;52.548;13.406;2023-11-19T06:29:10;4.13;;;3.15;;
71821;SDS011;64096;52.548;13.406;2023-11-19T06:31:36;4.95;;;3.50;;
71821;SDS011;64096;52.548;13.406;2023-11-19T06:34:02;4.68;;;3.60;;
71821;SDS011;64096;52.548;13.406;2023-11-19T06:36:28;4.97;;;3.30;;
71821;SDS011;64096;52.548;13.406;2023-11-19T06:38:54;5.05;;;3.30;;
71821;SDS011;64096;52.548;13.406;2023-11-19T06:41:21;4.93;;;3.33;;
71821;SDS011;64096;52.548;13.406;2023-11-19T06:43:47;4.40;;;2.90;;
71821;SDS011;64096;52.548;13.406;2023-11-19T06:46:16;5.53;;;2.83;;
71821;SDS011;64096;52.548;13.406;2023-11-19T06:48:42;4.15;;;2.67;;
71821;SDS011;64096;52.548;13.406;2023-11-19T06:51:09;4.18;;;2.70;;
71821;SDS011;64096;52.548;13.406;2023-11-19T06:53:35;4.60;;;2.83;;
71821;SDS011;64096;52.548;13.406;2023-11-19T06:56:01;4.50;;;2.90;;
71821;SDS011;64096;52.548;13.406;2023-11-19T06:58:31;4.93;;;3.03;;
71821;SDS011;64096;52.548;13.406;2023-11-19T07:01:00;4.30;;;2.80;;
71821;SDS011;64096;52.548;13.406;2023-11-19T07:03:26;4.78;;;3.15;;
71821;SDS011;64096;52.548;13.406;2023-11-19T07:05:52;4.65;;;3.00;;
71821;SDS011;64096;52.548;13.406;2023-11-19T07:08:18;4.32;;;2.85;;
71821;SDS011;64096;52.548;13.406;2023-11-19T07:10:45;4.40;;;3.10;;
71821;SDS011;64096;52.548;13.406;2023-11-19T07:13:12;4.50;;;3.10;;
71821;SDS011;64096;52.548;13.406;2023-11-19T07:15:38;3.97;;;2.65;;
71821;SDS011;64096;52.548;13.406;2023-11-19T07:18:04;4.25;;;2.70;;
71821;SDS011;64096;52.548;13.406;2023-11-19T07:20:30;5.55;;;3.03;;
71821;SDS011;64096;52.548;13.406;2023-11-19T07:22:58;4.20;;;2.80;;
71821;SDS011;64096;52.548;13.406;2023-11-19T07:25:24;4.40;;;2.67;;
71821;SDS011;64096;52.548;13.406;2023-11-19T07:27:51;4.22;;;2.80;;
71821;SDS011;64096;52.548;13.406;2023-11-19T07:30:17;4.35;;;2.83;;
71821;SDS011;64096;52.548;13.406;2023-11-19T07:32:43;6.10;;;2.60;;
71821;SDS011;64096;52.548;13.406;2023-11-19T07:35:09;3.72;;;2.25;;
71821;SDS011;64096;52.548;13.406;2023-11-19T07:37:36;3.60;;;2.40;;
71821;SDS011;64096;52.548;13.406;2023-11-19T07:40:02;3.60;;;2.42;;
71821;SDS011;64096;52.548;13.406;2023-11-19T07:42:29;4.22;;;2.58;;
71821;SDS011;64096;52.548;13.406;2023-11-19T07:44:56;4.57;;;2.70;;
71821;SDS011;64096;52.548;13.406;2023-11-19T07:47:22;3.63;;;2.50;;
71821;SDS011;64096;52.548;13.406;2023-11-19T07:49:48;4.57;;;2.78;;
71821;SDS011;64096;52.548;13.406;2023-11-19T07:52:14;4.10;;;2.67;;
71821;SDS011;64096;52.548;13.406;2023-11-19T07:54:40;3.90;;;2.63;;
71821;SDS011;64096;52.548;13.406;2023-11-19T07:57:06;4.13;;;2.67;;
71821;SDS011;64096;52.548;13.406;2023-11-19T07:59:32;4.00;;;2.50;;
71821;SDS011;64096;52.548;13.406;2023-11-19T08:01:58;4.60;;;2.50;;
71821;SDS011;64096;52.548;13.406;2023-11-19T08:04:24;3.80;;;2.35;;
71821;SDS011;64096;52.548;13.406;2023-11-19T08:06:50;5.22;;;2.58;;
71821;SDS011;64096;52.548;13.406;2023-11-19T08:09:16;3.72;;;2.40;;
71821;SDS011;64096;52.548;13.406;2023-11-19T08:11:43;4.53;;;2.92;;
71821;SDS011;64096;52.548;13.406;2023-11-19T08:14:09;3.97;;;2.60;;
71821;SDS011;64096;52.548;13.406;2023-11-19T08:16:36;3.47;;;2.30;;
71821;SDS011;64096;52.548;13.406;2023-11-19T08:19:02;3.88;;;2.58;;
71821;SDS011;64096;52.548;13.406;2023-11-19T08:21:28;4.18;;;2.63;;
71821;SDS011;64096;52.548;13.406;2023-11-19T08:23:54;4.03;;;2.60;;
71821;SDS011;64096;52.548;13.406;2023-11-19T08:26:21;3.75;;;2.47;;
71821;SDS011;64096;52.548;13.406;2023-11-19T08:28:47;3.60;;;2.00;;
71821;SDS011;64096;52.548;13.406;2023-11-19T08:31:13;4.45;;;2.40;;
71821;SDS011;64096;52.548;13.406;2023-11-19T08:33:39;5.03;;;2.35;;
71821;SDS011;64096;52.548;13.406;2023-11-19T08:36:06;4.18;;;2.67;;
71821;SDS011;64096;52.548;13.406;2023-11-19T08:38:32;4.38;;;2.60;;
71821;SDS011;64096;52.548;13.406;2023-11-19T08:40:58;4.28;;;2.63;;
71821;SDS011;64096;52.548;13.406;2023-11-19T08:43:27;4.40;;;3.03;;
71821;SDS011;64096;52.548;13.406;2023-11-19T08:45:53;3.20;;;2.03;;
71821;SDS011;64096;52.548;13.406;2023-11-19T08:48:19;3.58;;;2.25;;
71821;SDS011;64096;52.548;13.406;2023-11-19T08:50:45;3.92;;;2.53;;
71821;SDS011;64096;52.548;13.406;2023-11-19T08:53:11;3.90;;;2.60;;
71821;SDS011;64096;52.548;13.406;2023-11-19T08:55:41;4.53;;;2.80;;
71821;SDS011;64096;52.548;13.406;2023-11-19T08:58:07;3.50;;;2.38;;
71821;SDS011;64096;52.548;13.406;2023-11-19T09:00:33;3.42;;;2.35;;
71821;SDS011;64096;52.548;13.406;2023-11-19T09:02:59;3.85;;;2.33;;
71821;SDS011;64096;52.548;13.406;2023-11-19T09:05:25;4.35;;;2.50;;
71821;SDS011;64096;52.548;13.406;2023-11-19T09:07:51;3.97;;;2.60;;
71821;SDS011;64096;52.548;13.406;2023-11-19T09:10:18;4.60;;;2.30;;
71821;SDS011;64096;52.548;13.406;2023-11-19T09:12:44;3.45;;;2.20;;
71821;SDS011;64096;52.548;13.406;2023-11-19T09:15:10;3.80;;;2.35;;
71821;SDS011;64096;52.548;13.406;2023-11-19T09:17:36;3.67;;;2.40;;
71821;SDS011;64096;52.548;13.406;2023-11-19T09:20:02;3.50;;;2.30;;
71821;SDS011;64096;52.548;13.406;2023-11-19T09:22:28;4.97;;;2.22;;
71821;SDS011;64096;52.548;13.406;2023-11-19T09:24:54;3.50;;;2.20;;
71821;SDS011;64096;52.548;13.406;2023-11-19T09:27:20;4.18;;;2.67;;
71821;SDS011;64096;52.548;13.406;2023-11-19T09:29:46;3.13;;;2.13;;
71821;SDS011;64096;52.548;13.406;2023-11-19T09:32:14;3.90;;;2.10;;
71821;SDS011;64096;52.548;13.406;2023-11-19T09:34:40;3.38;;;2.30;;
71821;SDS011;64096;52.548;13.406;2023-11-19T09:37:06;3.55;;;2.30;;
71821;SDS011;64096;52.548;13.406;2023-11-19T09:39:33;3.80;;;2.00;;
71821;SDS011;64096;52.548;13.406;2023-11-19T09:41:59;3.35;;;2.17;;
71821;SDS011;64096;52.548;13.406;2023-11-19T09:44:25;3.83;;;2.17;;
71821;SDS011;64096;52.548;13.406;2023-11-19T09:46:52;4.03;;;2.55;;
71821;SDS011;64096;52.548;13.406;2023-11-19T09:49:19;2.85;;;1.70;;
71821;SDS011;64096;52.548;13.406;2023-11-19T09:51:49;3.13;;;1.90;;
71821;SDS011;64096;52.548;13.406;2023-11-19T09:54:15;4.22;;;1.85;;
71821;SDS011;64096;52.548;13.406;2023-11-19T09:56:42;3.85;;;1.77;;
71821;SDS011;64096;52.548;13.406;2023-11-19T09:59:08;3.10;;;1.70;;
71821;SDS011;64096;52.548;13.406;2023-11-19T10:01:38;2.85;;;1.70;;
71821;SDS011;64096;52.548;13.406;2023-11-19T10:04:04;2.63;;;1.50;;
71821;SDS011;64096;52.548;13.406;2023-11-19T10:06:32;5.05;;;1.70;;
71821;SDS011;64096;52.548;13.406;2023-11-19T10:08:58;2.83;;;1.60;;
71821;SDS011;64096;52.548;13.406;2023-11-19T10:11:24;3.28;;;1.80;;
71821;SDS011;64096;52.548;13.406;2023-11-19T10:13:51;4.43;;;1.33;;
71821;SDS011;64096;52.548;13.406;2023-11-19T10:16:17;3.60;;;1.52;;
71821;SDS011;64096;52.548;13.406;2023-11-19T10:18:47;2.85;;;1.33;;
71821;SDS011;64096;52.548;13.406;2023-11-19T10:21:15;3.58;;;1.45;;
71821;SDS011;64096;52.548;13.406;2023-11-19T10:23:52;3.13;;;1.25;;
71821;SDS011;64096;52.548;13.406;2023-11-19T10:26:21;5.80;;;1.58;;
71821;SDS011;64096;52.548;13.406;2023-11-19T10:28:48;3.17;;;1.50;;
71821;SDS011;64096;52.548;13.406;2023-11-19T10:31:17;3.13;;;1.40;;
71821;SDS011;64096;52.548;13.406;2023-11-19T10:33:43;3.45;;;1.30;;
71821;SDS011;64096;52.548;13.406;2023-11-19T10:36:10;3.92;;;1.50;;
71821;SDS011;64096;52.548;13.406;2023-11-19T10:38:40;3.60;;;1.20;;
71821;SDS011;64096;52.548;13.406;2023-11-19T10:41:06;3.67;;;1.30;;
71821;SDS011;64096;52.548;13.406;2023-11-19T10:43:44;3.85;;;1.30;;
71821;SDS011;64096;52.548;13.406;2023-11-19T10:46:11;2.80;;;1.23;;
71821;SDS011;64096;52.548;13.406;2023-11-19T10:48:37;3.35;;;1.65;;
71821;SDS011;64096;52.548;13.406;2023-11-19T10:51:05;4.32;;;1.63;;
71821;SDS011;64096;52.548;13.406;2023-11-19T10:53:33;3.92;;;1.30;;
71821;SDS011;64096;52.548;13.406;2023-11-19T10:56:01;2.17;;;1.23;;
71821;SDS011;64096;52.548;13.406;2023-11-19T10:58:28;4.80;;;1.60;;
71821;SDS011;64096;52.548;13.406;2023-11-19T11:00:55;3.42;;;1.20;;
71821;SDS011;64096;52.548;13.406;2023-11-19T11:03:25;6.40;;;1.50;;
71821;SDS011;64096;52.548;13.406;2023-11-19T11:05:52;3.30;;;1.33;;
71821;SDS011;64096;52.548;13.406;2023-11-19T11:08:19;4.13;;;1.52;;
71821;SDS011;64096;52.548;13.406;2023-11-19T11:10:52;5.32;;;1.90;;
71821;SDS011;64096;52.548;13.406;2023-11-19T11:13:19;5.40;;;2.22;;
71821;SDS011;64096;52.548;13.406;2023-11-19T11:15:45;5.63;;;2.00;;
71821;SDS011;64096;52.548;13.406;2023-11-19T11:18:12;4.60;;;1.77;;
71821;SDS011;64096;52.548;13.406;2023-11-19T11:20:39;5.90;;;2.22;;
71821;SDS011;64096;52.548;13.406;2023-11-19T11:28:21;5.32;;;1.80;;
71821;SDS011;64096;52.548;13.406;2023-11-19T11:38:21;4.85;;;1.75;;
71821;SDS011;64096;52.548;13.406;2023-11-19T11:43:45;4.82;;;1.50;;
71821;SDS011;64096;52.548;13.406;2023-11-19T11:48:56;7.65;;;1.80;;
71821;SDS011;64096;52.548;13.406;2023-11-19T11:54:28;6.05;;;1.95;;
71821;SDS011;64096;52.548;13.406;2023-11-19T11:57:08;6.32;;;2.90;;
71821;SDS011;64096;52.548;13.406;2023-11-19T11:59:49;6.80;;;2.13;;
71821;SDS011;64096;52.548;13.406;2023-11-19T12:02:22;6.72;;;2.53;;
71821;SDS011;64096;52.548;13.406;2023-11-19T12:04:49;9.20;;;2.70;;
71821;SDS011;64096;52.548;13.406;2023-11-19T12:07:17;5.60;;;2.00;;
71821;SDS011;64096;52.548;13.406;2023-11-19T12:09:47;7.10;;;2.20;;
71821;SDS011;64096;52.548;13.406;2023-11-19T12:12:19;8.55;;;2.95;;
71821;SDS011;64096;52.548;13.406;2023-11-19T12:17:43;8.30;;;2.88;;
71821;SDS011;64096;52.548;13.406;2023-11-19T12:20:09;10.15;;;3.08;;
71821;SDS011;64096;52.548;13.406;2023-11-19T12:22:40;7.00;;;2.60;;
71821;SDS011;64096;52.548;13.406;2023-11-19T12:25:07;9.38;;;2.83;;
71821;SDS011;64096;52.548;13.406;2023-11-19T12:27:34;6.65;;;2.83;;
71821;SDS011;64096;52.548;13.406;2023-11-19T12:30:00;10.35;;;2.90;;
71821;SDS011;64096;52.548;13.406;2023-11-19T12:32:37;8.23;;;2.65;;
71821;SDS011;64096;52.548;13.406;2023-11-19T12:35:04;7.65;;;2.45;;
71821;SDS011;64096;52.548;13.406;2023-11-19T12:37:30;8.52;;;2.25;;
71821;SDS011;64096;52.548;13.406;2023-11-19T12:39:57;10.75;;;2.35;;
71821;SDS011;64096;52.548;13.406;2023-11-19T12:42:38;7.50;;;2.28;;
71821;SDS011;64096;52.548;13.406;2023-11-19T12:45:05;8.43;;;2.50;;
71821;SDS011;64096;52.548;13.406;2023-11-19T12:47:31;6.47;;;2.30;;
71821;SDS011;64096;52.548;13.406;2023-11-19T12:49:57;7.40;;;2.30;;
71821;SDS011;64096;52.548;13.406;2023-11-19T12:52:23;6.78;;;2.30;;
71821;SDS011;64096;52.548;13.406;2023-11-19T12:54:49;7.50;;;2.40;;
71821;SDS011;64096;52.548;13.406;2023-11-19T12:57:16;7.30;;;2.25;;
71821;SDS011;64096;52.548;13.406;2023-11-19T12:59:54;9.20;;;2.65;;
71821;SDS011;64096;52.548;13.406;2023-11-19T13:02:21;8.32;;;2.97;;
71821;SDS011;64096;52.548;13.406;2023-11-19T13:04:48;6.95;;;2.30;;
71821;SDS011;64096;52.548;13.406;2023-11-19T13:07:19;7.25;;;2.22;;
71821;SDS011;64096;52.548;13.406;2023-11-19T13:09:45;6.68;;;2.53;;
71821;SDS011;64096;52.548;13.406;2023-11-19T13:12:12;10.18;;;2.72;;
71821;SDS011;64096;52.548;13.406;2023-11-19T13:14:39;9.02;;;2.92;;
71821;SDS011;64096;52.548;13.406;2023-11-19T13:17:07;12.25;;;3.05;;
71821;SDS011;64096;52.548;13.406;2023-11-19T13:19:33;10.55;;;2.90;;
71821;SDS011;64096;52.548;13.406;2023-11-19T13:22:00;7.72;;;2.50;;
71821;SDS011;64096;52.548;13.406;2023-11-19T13:24:26;9.23;;;2.60;;
71821;SDS011;64096;52.548;13.406;2023-11-19T13:26:53;9.88;;;2.75;;
71821;SDS011;64096;52.548;13.406;2023-11-19T13:29:19;7.05;;;2.17;;
71821;SDS011;64096;52.548;13.406;2023-11-19T13:31:45;6.40;;;2.05;;
71821;SDS011;64096;52.548;13.406;2023-11-19T13:34:11;10.65;;;2.85;;
71821;SDS011;64096;52.548;13.406;2023-11-19T13:36:37;10.93;;;3.00;;
71821;SDS011;64096;52.548;13.406;2023-11-19T13:39:03;7.32;;;2.55;;
71821;SDS011;64096;52.548;13.406;2023-11-19T13:41:29;8.98;;;3.13;;
71821;SDS011;64096;52.548;13.406;2023-11-19T13:43:55;7.68;;;2.45;;
71821;SDS011;64096;52.548;13.406;2023-11-19T13:46:21;8.20;;;2.83;;
71821;SDS011;64096;52.548;13.406;2023-11-19T13:48:47;11.68;;;3.58;;
71821;SDS011;64096;52.548;13.406;2023-11-19T13:51:14;8.32;;;2.25;;
71821;SDS011;64096;52.548;13.406;2023-11-19T13:53:40;10.00;;;3.08;;
71821;SDS011;64096;52.548;13.406;2023-11-19T13:56:08;10.07;;;2.90;;
71821;SDS011;64096;52.548;13.406;2023-11-19T13:58:34;9.63;;;3.08;;
